sensor_id;sensor_type;location;lat;lon;timestamp;P1;durP1;ratioP1;P2;durP2;ratioP2
66628;SDS011;53532;53.084;6.352;2023-03-15T00:01:01;10.40;;;2.30;;
66628;SDS011;53532;53.084;6.352;2023-03-15T00:03:33;11.57;;;2.63;;
66628;SDS011;53532;53.084;6.352;2023-03-15T00:06:04;10.30;;;2.83;;
66628;SDS011;53532;53.084;6.352;2023-03-15T00:08:30;11.77;;;2.83;;
66628;SDS011;53532;53.084;6.352;2023-03-15T00:10:59;11.17;;;2.63;;
66628;SDS011;53532;53.084;6.352;2023-03-15T00:13:26;14.60;;;2.80;;
66628;SDS011;53532;53.084;6.352;2023-03-15T00:15:55;14.17;;;2.60;;
66628;SDS011;53532;53.084;6.352;2023-03-15T00:18:21;14.03;;;3.43;;
66628;SDS011;53532;53.084;6.352;2023-03-15T00:20:49;12.70;;;2.70;;
66628;SDS011;53532;53.084;6.352;2023-03-15T00:23:15;11.23;;;2.23;;
66628;SDS011;53532;53.084;6.352;2023-03-15T00:25:42;10.20;;;2.77;;
66628;SDS011;53532;53.084;6.352;2023-03-15T00:28:09;13.03;;;2.17;;
66628;SDS011;53532;53.084;6.352;2023-03-15T00:30:36;8.00;;;1.90;;
66628;SDS011;53532;53.084;6.352;2023-03-15T00:33:02;14.10;;;2.37;;
66628;SDS011;53532;53.084;6.352;2023-03-15T00:35:30;10.10;;;2.17;;
66628;SDS011;53532;53.084;6.352;2023-03-15T00:37:59;15.93;;;2.40;;
66628;SDS011;53532;53.084;6.352;2023-03-15T00:40:25;11.27;;;2.20;;
66628;SDS011;53532;53.084;6.352;2023-03-15T00:42:51;11.70;;;2.20;;
66628;SDS011;53532;53.084;6.352;2023-03-15T00:45:17;13.20;;;2.00;;
66628;SDS011;53532;53.084;6.352;2023-03-15T00:47:44;10.47;;;2.17;;
66628;SDS011;53532;53.084;6.352;2023-03-15T00:50:10;14.37;;;2.83;;
66628;SDS011;53532;53.084;6.352;2023-03-15T00:52:37;12.03;;;2.30;;
66628;SDS011;53532;53.084;6.352;2023-03-15T00:55:08;10.90;;;1.97;;
66628;SDS011;53532;53.084;6.352;2023-03-15T00:57:39;14.03;;;2.17;;
66628;SDS011;53532;53.084;6.352;2023-03-15T01:00:06;10.30;;;1.93;;
66628;SDS011;53532;53.084;6.352;2023-03-15T01:02:33;13.17;;;1.73;;
66628;SDS011;53532;53.084;6.352;2023-03-15T01:05:01;12.10;;;1.80;;
66628;SDS011;53532;53.084;6.352;2023-03-15T01:07:27;13.00;;;2.10;;
66628;SDS011;53532;53.084;6.352;2023-03-15T01:09:54;11.47;;;1.80;;
66628;SDS011;53532;53.084;6.352;2023-03-15T01:12:21;12.07;;;2.33;;
66628;SDS011;53532;53.084;6.352;2023-03-15T01:14:47;10.00;;;1.80;;
66628;SDS011;53532;53.084;6.352;2023-03-15T01:17:14;7.13;;;1.70;;
66628;SDS011;53532;53.084;6.352;2023-03-15T01:19:40;9.57;;;2.07;;
66628;SDS011;53532;53.084;6.352;2023-03-15T01:22:06;12.57;;;1.90;;
66628;SDS011;53532;53.084;6.352;2023-03-15T01:24:32;10.47;;;1.63;;
66628;SDS011;53532;53.084;6.352;2023-03-15T01:26:58;10.73;;;1.70;;
66628;SDS011;53532;53.084;6.352;2023-03-15T01:29:27;9.60;;;1.63;;
66628;SDS011;53532;53.084;6.352;2023-03-15T01:31:53;9.13;;;1.57;;
66628;SDS011;53532;53.084;6.352;2023-03-15T01:34:19;10.10;;;1.73;;
66628;SDS011;53532;53.084;6.352;2023-03-15T01:36:48;11.43;;;2.00;;
66628;SDS011;53532;53.084;6.352;2023-03-15T01:39:15;12.97;;;2.30;;
66628;SDS011;53532;53.084;6.352;2023-03-15T01:41:42;11.63;;;2.10;;
66628;SDS011;53532;53.084;6.352;2023-03-15T01:44:10;12.03;;;1.80;;
66628;SDS011;53532;53.084;6.352;2023-03-15T01:46:38;11.43;;;1.77;;
66628;SDS011;53532;53.084;6.352;2023-03-15T01:49:05;9.20;;;1.70;;
66628;SDS011;53532;53.084;6.352;2023-03-15T01:51:33;12.07;;;2.83;;
66628;SDS011;53532;53.084;6.352;2023-03-15T01:54:02;10.13;;;1.90;;
66628;SDS011;53532;53.084;6.352;2023-03-15T01:56:29;10.73;;;2.07;;
66628;SDS011;53532;53.084;6.352;2023-03-15T01:58:56;9.17;;;1.70;;
66628;SDS011;53532;53.084;6.352;2023-03-15T02:01:24;9.40;;;2.07;;
66628;SDS011;53532;53.084;6.352;2023-03-15T02:03:52;11.43;;;2.10;;
66628;SDS011;53532;53.084;6.352;2023-03-15T02:06:19;8.03;;;1.70;;
66628;SDS011;53532;53.084;6.352;2023-03-15T02:08:48;12.27;;;2.17;;
66628;SDS011;53532;53.084;6.352;2023-03-15T02:11:16;10.93;;;2.07;;
66628;SDS011;53532;53.084;6.352;2023-03-15T02:13:44;14.43;;;2.60;;
66628;SDS011;53532;53.084;6.352;2023-03-15T02:16:10;10.83;;;1.93;;
66628;SDS011;53532;53.084;6.352;2023-03-15T02:18:37;10.20;;;2.17;;
66628;SDS011;53532;53.084;6.352;2023-03-15T02:21:07;9.70;;;1.60;;
66628;SDS011;53532;53.084;6.352;2023-03-15T02:23:37;8.53;;;1.80;;
66628;SDS011;53532;53.084;6.352;2023-03-15T02:26:07;10.23;;;1.90;;
66628;SDS011;53532;53.084;6.352;2023-03-15T02:28:36;11.13;;;1.88;;
66628;SDS011;53532;53.084;6.352;2023-03-15T02:31:02;12.63;;;1.87;;
66628;SDS011;53532;53.084;6.352;2023-03-15T02:33:29;9.40;;;1.83;;
66628;SDS011;53532;53.084;6.352;2023-03-15T02:36:05;8.93;;;1.67;;
66628;SDS011;53532;53.084;6.352;2023-03-15T02:38:31;10.07;;;1.67;;
66628;SDS011;53532;53.084;6.352;2023-03-15T02:40:57;7.93;;;1.80;;
66628;SDS011;53532;53.084;6.352;2023-03-15T02:43:24;7.97;;;1.80;;
66628;SDS011;53532;53.084;6.352;2023-03-15T02:45:54;8.23;;;1.57;;
66628;SDS011;53532;53.084;6.352;2023-03-15T02:48:21;6.07;;;1.50;;
66628;SDS011;53532;53.084;6.352;2023-03-15T02:50:47;9.47;;;1.60;;
66628;SDS011;53532;53.084;6.352;2023-03-15T02:53:14;8.93;;;2.20;;
66628;SDS011;53532;53.084;6.352;2023-03-15T02:55:40;9.23;;;1.70;;
66628;SDS011;53532;53.084;6.352;2023-03-15T02:58:07;8.50;;;1.50;;
66628;SDS011;53532;53.084;6.352;2023-03-15T03:00:33;10.70;;;1.67;;
66628;SDS011;53532;53.084;6.352;2023-03-15T03:03:00;6.90;;;1.43;;
66628;SDS011;53532;53.084;6.352;2023-03-15T03:05:27;8.83;;;1.77;;
66628;SDS011;53532;53.084;6.352;2023-03-15T03:07:53;8.30;;;1.63;;
66628;SDS011;53532;53.084;6.352;2023-03-15T03:10:19;8.50;;;1.50;;
66628;SDS011;53532;53.084;6.352;2023-03-15T03:12:45;10.07;;;1.67;;
66628;SDS011;53532;53.084;6.352;2023-03-15T03:15:12;10.13;;;2.10;;
66628;SDS011;53532;53.084;6.352;2023-03-15T03:17:38;9.53;;;1.90;;
66628;SDS011;53532;53.084;6.352;2023-03-15T03:20:06;10.07;;;1.83;;
66628;SDS011;53532;53.084;6.352;2023-03-15T03:22:33;7.83;;;1.43;;
66628;SDS011;53532;53.084;6.352;2023-03-15T03:25:00;9.30;;;1.80;;
66628;SDS011;53532;53.084;6.352;2023-03-15T03:27:26;8.87;;;1.80;;
66628;SDS011;53532;53.084;6.352;2023-03-15T03:29:52;10.37;;;2.10;;
66628;SDS011;53532;53.084;6.352;2023-03-15T03:32:19;11.70;;;1.90;;
66628;SDS011;53532;53.084;6.352;2023-03-15T03:34:45;11.57;;;2.27;;
66628;SDS011;53532;53.084;6.352;2023-03-15T03:37:14;10.87;;;2.10;;
66628;SDS011;53532;53.084;6.352;2023-03-15T03:39:41;9.10;;;1.90;;
66628;SDS011;53532;53.084;6.352;2023-03-15T03:42:07;11.33;;;2.30;;
66628;SDS011;53532;53.084;6.352;2023-03-15T03:44:33;9.93;;;1.60;;
66628;SDS011;53532;53.084;6.352;2023-03-15T03:47:00;9.10;;;1.87;;
66628;SDS011;53532;53.084;6.352;2023-03-15T03:49:26;8.67;;;1.70;;
66628;SDS011;53532;53.084;6.352;2023-03-15T03:51:52;7.43;;;1.90;;
66628;SDS011;53532;53.084;6.352;2023-03-15T03:54:20;11.20;;;2.30;;
66628;SDS011;53532;53.084;6.352;2023-03-15T03:56:46;8.97;;;1.63;;
66628;SDS011;53532;53.084;6.352;2023-03-15T03:59:12;6.30;;;1.57;;
66628;SDS011;53532;53.084;6.352;2023-03-15T04:01:38;9.50;;;2.20;;
66628;SDS011;53532;53.084;6.352;2023-03-15T04:04:06;7.70;;;1.90;;
66628;SDS011;53532;53.084;6.352;2023-03-15T04:06:32;13.13;;;2.33;;
66628;SDS011;53532;53.084;6.352;2023-03-15T04:08:58;11.77;;;2.07;;
66628;SDS011;53532;53.084;6.352;2023-03-15T04:11:28;7.83;;;1.83;;
66628;SDS011;53532;53.084;6.352;2023-03-15T04:13:54;10.20;;;1.97;;
66628;SDS011;53532;53.084;6.352;2023-03-15T04:16:20;10.70;;;2.10;;
66628;SDS011;53532;53.084;6.352;2023-03-15T04:18:48;8.87;;;1.93;;
66628;SDS011;53532;53.084;6.352;2023-03-15T04:21:14;8.60;;;2.00;;
66628;SDS011;53532;53.084;6.352;2023-03-15T04:23:40;10.03;;;1.93;;
66628;SDS011;53532;53.084;6.352;2023-03-15T04:26:07;15.13;;;2.53;;
66628;SDS011;53532;53.084;6.352;2023-03-15T04:28:34;8.57;;;1.90;;
66628;SDS011;53532;53.084;6.352;2023-03-15T04:31:02;11.27;;;2.00;;
66628;SDS011;53532;53.084;6.352;2023-03-15T04:33:28;10.57;;;2.30;;
66628;SDS011;53532;53.084;6.352;2023-03-15T04:35:56;11.27;;;1.93;;
66628;SDS011;53532;53.084;6.352;2023-03-15T04:38:22;12.47;;;2.10;;
66628;SDS011;53532;53.084;6.352;2023-03-15T04:40:50;12.37;;;2.40;;
66628;SDS011;53532;53.084;6.352;2023-03-15T04:43:17;12.50;;;1.93;;
66628;SDS011;53532;53.084;6.352;2023-03-15T04:45:45;16.97;;;2.73;;
66628;SDS011;53532;53.084;6.352;2023-03-15T04:48:11;12.73;;;2.20;;
66628;SDS011;53532;53.084;6.352;2023-03-15T04:50:37;11.60;;;2.40;;
66628;SDS011;53532;53.084;6.352;2023-03-15T04:53:03;11.37;;;2.37;;
66628;SDS011;53532;53.084;6.352;2023-03-15T04:55:30;11.80;;;2.40;;
66628;SDS011;53532;53.084;6.352;2023-03-15T04:57:56;15.57;;;2.20;;
66628;SDS011;53532;53.084;6.352;2023-03-15T05:00:22;8.80;;;2.00;;
66628;SDS011;53532;53.084;6.352;2023-03-15T05:02:50;11.80;;;2.40;;
66628;SDS011;53532;53.084;6.352;2023-03-15T05:05:19;12.80;;;3.10;;
66628;SDS011;53532;53.084;6.352;2023-03-15T05:07:45;11.27;;;2.83;;
66628;SDS011;53532;53.084;6.352;2023-03-15T05:10:11;10.93;;;2.43;;
66628;SDS011;53532;53.084;6.352;2023-03-15T05:12:38;12.63;;;2.03;;
66628;SDS011;53532;53.084;6.352;2023-03-15T05:15:05;12.33;;;2.40;;
66628;SDS011;53532;53.084;6.352;2023-03-15T05:17:31;13.67;;;2.60;;
66628;SDS011;53532;53.084;6.352;2023-03-15T05:19:59;11.97;;;2.20;;
66628;SDS011;53532;53.084;6.352;2023-03-15T05:22:25;9.60;;;2.10;;
66628;SDS011;53532;53.084;6.352;2023-03-15T05:24:52;8.30;;;1.97;;
66628;SDS011;53532;53.084;6.352;2023-03-15T05:27:18;8.97;;;2.20;;
66628;SDS011;53532;53.084;6.352;2023-03-15T05:29:44;9.60;;;2.00;;
66628;SDS011;53532;53.084;6.352;2023-03-15T05:32:11;11.23;;;2.00;;
66628;SDS011;53532;53.084;6.352;2023-03-15T05:34:37;8.83;;;2.10;;
66628;SDS011;53532;53.084;6.352;2023-03-15T05:37:05;8.60;;;2.00;;
66628;SDS011;53532;53.084;6.352;2023-03-15T05:39:31;11.10;;;2.17;;
66628;SDS011;53532;53.084;6.352;2023-03-15T05:41:58;9.97;;;1.90;;
66628;SDS011;53532;53.084;6.352;2023-03-15T05:44:25;14.13;;;2.67;;
66628;SDS011;53532;53.084;6.352;2023-03-15T05:46:52;10.80;;;2.20;;
66628;SDS011;53532;53.084;6.352;2023-03-15T05:49:18;11.43;;;2.30;;
66628;SDS011;53532;53.084;6.352;2023-03-15T05:51:44;8.40;;;2.10;;
66628;SDS011;53532;53.084;6.352;2023-03-15T05:54:12;12.97;;;2.10;;
66628;SDS011;53532;53.084;6.352;2023-03-15T05:56:38;8.60;;;2.00;;
66628;SDS011;53532;53.084;6.352;2023-03-15T05:59:04;10.33;;;1.90;;
66628;SDS011;53532;53.084;6.352;2023-03-15T06:01:30;8.13;;;2.00;;
66628;SDS011;53532;53.084;6.352;2023-03-15T06:03:57;10.93;;;2.20;;
66628;SDS011;53532;53.084;6.352;2023-03-15T06:06:23;10.87;;;1.67;;
66628;SDS011;53532;53.084;6.352;2023-03-15T06:08:49;9.30;;;1.90;;
66628;SDS011;53532;53.084;6.352;2023-03-15T06:11:16;7.57;;;1.80;;
66628;SDS011;53532;53.084;6.352;2023-03-15T06:13:43;9.53;;;1.90;;
66628;SDS011;53532;53.084;6.352;2023-03-15T06:16:09;9.13;;;2.13;;
66628;SDS011;53532;53.084;6.352;2023-03-15T06:18:35;11.43;;;1.90;;
66628;SDS011;53532;53.084;6.352;2023-03-15T06:21:01;5.50;;;1.50;;
66628;SDS011;53532;53.084;6.352;2023-03-15T06:23:27;7.67;;;2.00;;
66628;SDS011;53532;53.084;6.352;2023-03-15T06:25:53;8.43;;;1.90;;
66628;SDS011;53532;53.084;6.352;2023-03-15T06:28:21;8.30;;;1.60;;
66628;SDS011;53532;53.084;6.352;2023-03-15T06:30:47;8.87;;;1.90;;
66628;SDS011;53532;53.084;6.352;2023-03-15T06:33:13;11.27;;;1.87;;
66628;SDS011;53532;53.084;6.352;2023-03-15T06:35:40;7.67;;;1.70;;
66628;SDS011;53532;53.084;6.352;2023-03-15T06:38:07;8.80;;;1.50;;
66628;SDS011;53532;53.084;6.352;2023-03-15T06:40:33;9.03;;;1.80;;
66628;SDS011;53532;53.084;6.352;2023-03-15T06:42:59;10.87;;;2.23;;
66628;SDS011;53532;53.084;6.352;2023-03-15T06:45:31;10.03;;;2.00;;
66628;SDS011;53532;53.084;6.352;2023-03-15T06:47:57;7.70;;;2.00;;
66628;SDS011;53532;53.084;6.352;2023-03-15T06:50:23;8.87;;;1.80;;
66628;SDS011;53532;53.084;6.352;2023-03-15T06:52:50;10.57;;;2.23;;
66628;SDS011;53532;53.084;6.352;2023-03-15T06:55:16;10.77;;;2.90;;
66628;SDS011;53532;53.084;6.352;2023-03-15T06:57:42;13.77;;;2.43;;
66628;SDS011;53532;53.084;6.352;2023-03-15T07:00:09;11.27;;;2.60;;
66628;SDS011;53532;53.084;6.352;2023-03-15T07:02:37;10.80;;;2.53;;
66628;SDS011;53532;53.084;6.352;2023-03-15T07:05:03;9.57;;;2.53;;
66628;SDS011;53532;53.084;6.352;2023-03-15T07:07:30;10.20;;;2.80;;
66628;SDS011;53532;53.084;6.352;2023-03-15T07:09:56;9.97;;;2.40;;
66628;SDS011;53532;53.084;6.352;2023-03-15T07:12:22;8.57;;;1.90;;
66628;SDS011;53532;53.084;6.352;2023-03-15T07:14:48;13.40;;;2.60;;
66628;SDS011;53532;53.084;6.352;2023-03-15T07:17:14;11.23;;;2.40;;
66628;SDS011;53532;53.084;6.352;2023-03-15T07:19:42;11.90;;;2.40;;
66628;SDS011;53532;53.084;6.352;2023-03-15T07:22:09;11.50;;;2.50;;
66628;SDS011;53532;53.084;6.352;2023-03-15T07:24:35;13.30;;;2.83;;
66628;SDS011;53532;53.084;6.352;2023-03-15T07:27:01;10.57;;;2.27;;
66628;SDS011;53532;53.084;6.352;2023-03-15T07:29:27;10.50;;;2.37;;
66628;SDS011;53532;53.084;6.352;2023-03-15T07:31:54;8.57;;;2.20;;
66628;SDS011;53532;53.084;6.352;2023-03-15T07:34:21;8.57;;;2.20;;
66628;SDS011;53532;53.084;6.352;2023-03-15T07:36:49;10.17;;;2.43;;
66628;SDS011;53532;53.084;6.352;2023-03-15T07:39:15;11.63;;;2.53;;
66628;SDS011;53532;53.084;6.352;2023-03-15T07:41:41;8.93;;;2.10;;
66628;SDS011;53532;53.084;6.352;2023-03-15T07:44:08;13.97;;;2.87;;
66628;SDS011;53532;53.084;6.352;2023-03-15T07:46:34;10.03;;;2.03;;
66628;SDS011;53532;53.084;6.352;2023-03-15T07:49:00;10.17;;;2.37;;
66628;SDS011;53532;53.084;6.352;2023-03-15T07:51:26;9.43;;;2.30;;
66628;SDS011;53532;53.084;6.352;2023-03-15T07:53:54;9.87;;;2.00;;
66628;SDS011;53532;53.084;6.352;2023-03-15T07:56:20;9.27;;;2.10;;
66628;SDS011;53532;53.084;6.352;2023-03-15T07:58:46;12.03;;;2.37;;
66628;SDS011;53532;53.084;6.352;2023-03-15T08:01:12;10.00;;;2.60;;
66628;SDS011;53532;53.084;6.352;2023-03-15T08:03:38;12.23;;;2.57;;
66628;SDS011;53532;53.084;6.352;2023-03-15T08:06:05;11.03;;;2.30;;
66628;SDS011;53532;53.084;6.352;2023-03-15T08:08:31;9.77;;;2.13;;
66628;SDS011;53532;53.084;6.352;2023-03-15T08:10:59;12.70;;;2.10;;
66628;SDS011;53532;53.084;6.352;2023-03-15T08:13:25;9.50;;;2.10;;
66628;SDS011;53532;53.084;6.352;2023-03-15T08:15:51;9.53;;;2.10;;
66628;SDS011;53532;53.084;6.352;2023-03-15T08:18:17;9.30;;;2.07;;
66628;SDS011;53532;53.084;6.352;2023-03-15T08:20:44;7.20;;;2.07;;
66628;SDS011;53532;53.084;6.352;2023-03-15T08:23:10;6.93;;;1.80;;
66628;SDS011;53532;53.084;6.352;2023-03-15T08:25:40;7.60;;;1.80;;
66628;SDS011;53532;53.084;6.352;2023-03-15T08:28:08;8.63;;;2.07;;
66628;SDS011;53532;53.084;6.352;2023-03-15T08:30:34;11.40;;;2.43;;
66628;SDS011;53532;53.084;6.352;2023-03-15T08:33:00;8.03;;;2.00;;
66628;SDS011;53532;53.084;6.352;2023-03-15T08:35:27;9.50;;;1.90;;
66628;SDS011;53532;53.084;6.352;2023-03-15T08:37:56;10.10;;;1.97;;
66628;SDS011;53532;53.084;6.352;2023-03-15T08:40:22;9.43;;;1.97;;
66628;SDS011;53532;53.084;6.352;2023-03-15T08:42:48;8.10;;;1.87;;
66628;SDS011;53532;53.084;6.352;2023-03-15T08:45:15;11.17;;;2.27;;
66628;SDS011;53532;53.084;6.352;2023-03-15T08:47:42;7.47;;;1.90;;
66628;SDS011;53532;53.084;6.352;2023-03-15T08:50:09;11.50;;;2.20;;
66628;SDS011;53532;53.084;6.352;2023-03-15T08:52:36;8.27;;;1.50;;
66628;SDS011;53532;53.084;6.352;2023-03-15T08:55:03;8.63;;;1.70;;
66628;SDS011;53532;53.084;6.352;2023-03-15T08:57:29;6.90;;;1.30;;
66628;SDS011;53532;53.084;6.352;2023-03-15T08:59:57;8.30;;;1.67;;
66628;SDS011;53532;53.084;6.352;2023-03-15T09:02:24;10.17;;;1.77;;
66628;SDS011;53532;53.084;6.352;2023-03-15T09:04:51;9.50;;;1.70;;
66628;SDS011;53532;53.084;6.352;2023-03-15T09:07:17;7.30;;;1.80;;
66628;SDS011;53532;53.084;6.352;2023-03-15T09:09:43;6.25;;;1.70;;
66628;SDS011;53532;53.084;6.352;2023-03-15T09:12:12;6.60;;;1.57;;
66628;SDS011;53532;53.084;6.352;2023-03-15T09:14:38;7.97;;;1.70;;
66628;SDS011;53532;53.084;6.352;2023-03-15T09:17:04;8.13;;;1.85;;
66628;SDS011;53532;53.084;6.352;2023-03-15T09:19:32;6.05;;;1.60;;
66628;SDS011;53532;53.084;6.352;2023-03-15T09:21:58;8.68;;;1.58;;
66628;SDS011;53532;53.084;6.352;2023-03-15T09:24:24;9.32;;;1.50;;
66628;SDS011;53532;53.084;6.352;2023-03-15T09:26:51;8.25;;;1.60;;
66628;SDS011;53532;53.084;6.352;2023-03-15T09:29:17;6.68;;;1.60;;
66628;SDS011;53532;53.084;6.352;2023-03-15T09:31:43;8.07;;;1.50;;
66628;SDS011;53532;53.084;6.352;2023-03-15T09:34:09;5.05;;;1.17;;
66628;SDS011;53532;53.084;6.352;2023-03-15T09:36:38;9.68;;;1.65;;
66628;SDS011;53532;53.084;6.352;2023-03-15T09:39:04;6.07;;;1.60;;
66628;SDS011;53532;53.084;6.352;2023-03-15T09:41:39;9.15;;;1.90;;
66628;SDS011;53532;53.084;6.352;2023-03-15T09:44:09;12.68;;;1.90;;
66628;SDS011;53532;53.084;6.352;2023-03-15T09:46:37;6.72;;;1.60;;
66628;SDS011;53532;53.084;6.352;2023-03-15T09:49:07;8.10;;;1.70;;
66628;SDS011;53532;53.084;6.352;2023-03-15T09:51:37;6.60;;;1.40;;
66628;SDS011;53532;53.084;6.352;2023-03-15T09:54:06;7.20;;;1.70;;
66628;SDS011;53532;53.084;6.352;2023-03-15T09:56:35;8.77;;;1.65;;
66628;SDS011;53532;53.084;6.352;2023-03-15T09:59:02;7.03;;;1.70;;
66628;SDS011;53532;53.084;6.352;2023-03-15T10:01:30;8.00;;;1.80;;
66628;SDS011;53532;53.084;6.352;2023-03-15T10:03:57;10.60;;;1.83;;
66628;SDS011;53532;53.084;6.352;2023-03-15T10:06:27;9.88;;;2.00;;
66628;SDS011;53532;53.084;6.352;2023-03-15T10:08:55;8.30;;;1.60;;
66628;SDS011;53532;53.084;6.352;2023-03-15T10:11:24;8.25;;;1.48;;
66628;SDS011;53532;53.084;6.352;2023-03-15T10:13:56;10.23;;;2.03;;
66628;SDS011;53532;53.084;6.352;2023-03-15T10:16:31;11.45;;;1.77;;
66628;SDS011;53532;53.084;6.352;2023-03-15T10:19:03;9.77;;;1.90;;
66628;SDS011;53532;53.084;6.352;2023-03-15T10:21:33;14.40;;;2.40;;
66628;SDS011;53532;53.084;6.352;2023-03-15T10:24:01;9.88;;;1.92;;
66628;SDS011;53532;53.084;6.352;2023-03-15T10:26:32;8.65;;;1.73;;
66628;SDS011;53532;53.084;6.352;2023-03-15T10:29:00;10.30;;;1.67;;
66628;SDS011;53532;53.084;6.352;2023-03-15T10:31:29;10.95;;;1.95;;
66628;SDS011;53532;53.084;6.352;2023-03-15T10:33:56;9.98;;;1.55;;
66628;SDS011;53532;53.084;6.352;2023-03-15T10:36:23;9.23;;;1.77;;
66628;SDS011;53532;53.084;6.352;2023-03-15T10:38:50;8.48;;;1.70;;
66628;SDS011;53532;53.084;6.352;2023-03-15T10:41:26;11.85;;;1.90;;
66628;SDS011;53532;53.084;6.352;2023-03-15T10:43:57;7.70;;;1.52;;
66628;SDS011;53532;53.084;6.352;2023-03-15T10:46:23;8.57;;;2.03;;
66628;SDS011;53532;53.084;6.352;2023-03-15T10:48:55;9.45;;;1.60;;
66628;SDS011;53532;53.084;6.352;2023-03-15T10:51:23;8.95;;;1.83;;
66628;SDS011;53532;53.084;6.352;2023-03-15T10:53:54;8.82;;;1.70;;
66628;SDS011;53532;53.084;6.352;2023-03-15T10:56:22;8.65;;;1.80;;
66628;SDS011;53532;53.084;6.352;2023-03-15T10:58:50;7.63;;;1.55;;
66628;SDS011;53532;53.084;6.352;2023-03-15T11:01:23;6.95;;;1.45;;
66628;SDS011;53532;53.084;6.352;2023-03-15T11:03:59;8.80;;;1.70;;
66628;SDS011;53532;53.084;6.352;2023-03-15T11:06:26;6.88;;;1.48;;
66628;SDS011;53532;53.084;6.352;2023-03-15T11:08:53;7.32;;;1.50;;
66628;SDS011;53532;53.084;6.352;2023-03-15T11:11:36;7.65;;;1.40;;
66628;SDS011;53532;53.084;6.352;2023-03-15T11:14:13;7.75;;;1.52;;
66628;SDS011;53532;53.084;6.352;2023-03-15T11:16:40;8.73;;;1.73;;
66628;SDS011;53532;53.084;6.352;2023-03-15T11:19:09;8.30;;;2.35;;
66628;SDS011;53532;53.084;6.352;2023-03-15T11:21:37;8.38;;;2.03;;
66628;SDS011;53532;53.084;6.352;2023-03-15T11:24:03;9.10;;;1.75;;
66628;SDS011;53532;53.084;6.352;2023-03-15T11:26:30;6.60;;;1.55;;
66628;SDS011;53532;53.084;6.352;2023-03-15T11:28:59;7.63;;;1.90;;
66628;SDS011;53532;53.084;6.352;2023-03-15T11:31:26;9.95;;;1.70;;
66628;SDS011;53532;53.084;6.352;2023-03-15T11:33:55;9.40;;;1.88;;
66628;SDS011;53532;53.084;6.352;2023-03-15T11:36:22;9.00;;;1.73;;
66628;SDS011;53532;53.084;6.352;2023-03-15T11:38:50;6.35;;;1.55;;
66628;SDS011;53532;53.084;6.352;2023-03-15T11:41:25;6.18;;;1.20;;
66628;SDS011;53532;53.084;6.352;2023-03-15T11:43:58;8.43;;;1.55;;
66628;SDS011;53532;53.084;6.352;2023-03-15T11:46:28;9.30;;;1.60;;
66628;SDS011;53532;53.084;6.352;2023-03-15T11:48:58;6.80;;;1.52;;
66628;SDS011;53532;53.084;6.352;2023-03-15T11:51:26;7.63;;;1.40;;
66628;SDS011;53532;53.084;6.352;2023-03-15T11:53:56;6.93;;;1.60;;
66628;SDS011;53532;53.084;6.352;2023-03-15T11:56:43;8.45;;;1.73;;
66628;SDS011;53532;53.084;6.352;2023-03-15T11:59:10;7.28;;;1.50;;
66628;SDS011;53532;53.084;6.352;2023-03-15T12:01:40;7.97;;;1.58;;
66628;SDS011;53532;53.084;6.352;2023-03-15T12:06:49;8.50;;;1.77;;
66628;SDS011;53532;53.084;6.352;2023-03-15T12:09:37;9.20;;;1.90;;
66628;SDS011;53532;53.084;6.352;2023-03-15T12:12:04;5.88;;;1.58;;
66628;SDS011;53532;53.084;6.352;2023-03-15T12:14:32;6.15;;;1.60;;
66628;SDS011;53532;53.084;6.352;2023-03-15T12:19:43;6.30;;;1.70;;
66628;SDS011;53532;53.084;6.352;2023-03-15T12:22:14;9.40;;;1.90;;
66628;SDS011;53532;53.084;6.352;2023-03-15T12:24:42;6.70;;;1.52;;
66628;SDS011;53532;53.084;6.352;2023-03-15T12:27:13;9.60;;;1.80;;
66628;SDS011;53532;53.084;6.352;2023-03-15T12:29:39;9.02;;;1.80;;
66628;SDS011;53532;53.084;6.352;2023-03-15T12:32:07;5.38;;;1.40;;
66628;SDS011;53532;53.084;6.352;2023-03-15T12:34:35;8.98;;;1.58;;
66628;SDS011;53532;53.084;6.352;2023-03-15T12:37:04;7.45;;;1.38;;
66628;SDS011;53532;53.084;6.352;2023-03-15T12:39:37;7.05;;;1.65;;
66628;SDS011;53532;53.084;6.352;2023-03-15T12:42:03;10.55;;;2.58;;
66628;SDS011;53532;53.084;6.352;2023-03-15T12:44:37;10.50;;;1.98;;
66628;SDS011;53532;53.084;6.352;2023-03-15T12:47:04;7.97;;;1.67;;
66628;SDS011;53532;53.084;6.352;2023-03-15T12:49:35;8.80;;;1.70;;
66628;SDS011;53532;53.084;6.352;2023-03-15T12:54:30;8.63;;;1.83;;
66628;SDS011;53532;53.084;6.352;2023-03-15T12:56:59;6.22;;;1.55;;
66628;SDS011;53532;53.084;6.352;2023-03-15T12:59:31;7.15;;;1.50;;
66628;SDS011;53532;53.084;6.352;2023-03-15T13:01:58;5.65;;;1.33;;
66628;SDS011;53532;53.084;6.352;2023-03-15T13:04:25;7.00;;;1.67;;
66628;SDS011;53532;53.084;6.352;2023-03-15T13:06:54;6.55;;;1.63;;
66628;SDS011;53532;53.084;6.352;2023-03-15T13:09:26;6.32;;;1.40;;
66628;SDS011;53532;53.084;6.352;2023-03-15T13:12:00;5.63;;;1.38;;
66628;SDS011;53532;53.084;6.352;2023-03-15T13:14:36;6.60;;;1.48;;
66628;SDS011;53532;53.084;6.352;2023-03-15T13:17:09;8.80;;;1.75;;
66628;SDS011;53532;53.084;6.352;2023-03-15T13:19:42;6.80;;;1.50;;
66628;SDS011;53532;53.084;6.352;2023-03-15T13:22:11;7.38;;;1.55;;
66628;SDS011;53532;53.084;6.352;2023-03-15T13:24:40;7.00;;;1.55;;
66628;SDS011;53532;53.084;6.352;2023-03-15T13:27:12;4.68;;;1.38;;
66628;SDS011;53532;53.084;6.352;2023-03-15T13:29:41;7.03;;;1.35;;
66628;SDS011;53532;53.084;6.352;2023-03-15T13:32:11;6.35;;;1.33;;
66628;SDS011;53532;53.084;6.352;2023-03-15T13:34:37;6.88;;;1.45;;
66628;SDS011;53532;53.084;6.352;2023-03-15T13:37:05;7.13;;;1.67;;
66628;SDS011;53532;53.084;6.352;2023-03-15T13:39:35;7.25;;;1.58;;
66628;SDS011;53532;53.084;6.352;2023-03-15T13:42:03;6.28;;;1.38;;
66628;SDS011;53532;53.084;6.352;2023-03-15T13:44:31;6.00;;;1.30;;
66628;SDS011;53532;53.084;6.352;2023-03-15T13:46:58;7.13;;;1.50;;
66628;SDS011;53532;53.084;6.352;2023-03-15T13:49:29;9.05;;;1.50;;
66628;SDS011;53532;53.084;6.352;2023-03-15T13:51:55;4.90;;;1.08;;
66628;SDS011;53532;53.084;6.352;2023-03-15T13:54:23;7.80;;;1.65;;
66628;SDS011;53532;53.084;6.352;2023-03-15T13:56:57;6.40;;;1.30;;
66628;SDS011;53532;53.084;6.352;2023-03-15T13:59:26;7.13;;;1.60;;
66628;SDS011;53532;53.084;6.352;2023-03-15T14:01:55;6.65;;;1.38;;
66628;SDS011;53532;53.084;6.352;2023-03-15T14:04:21;7.40;;;1.60;;
66628;SDS011;53532;53.084;6.352;2023-03-15T14:06:48;8.80;;;1.38;;
66628;SDS011;53532;53.084;6.352;2023-03-15T14:09:19;6.93;;;1.60;;
66628;SDS011;53532;53.084;6.352;2023-03-15T14:11:45;6.57;;;1.55;;
66628;SDS011;53532;53.084;6.352;2023-03-15T14:14:25;6.25;;;1.50;;
66628;SDS011;53532;53.084;6.352;2023-03-15T14:16:52;6.32;;;1.23;;
66628;SDS011;53532;53.084;6.352;2023-03-15T14:19:21;5.88;;;1.48;;
66628;SDS011;53532;53.084;6.352;2023-03-15T14:21:50;8.95;;;1.88;;
66628;SDS011;53532;53.084;6.352;2023-03-15T14:24:19;6.90;;;1.52;;
66628;SDS011;53532;53.084;6.352;2023-03-15T14:26:49;5.80;;;1.30;;
66628;SDS011;53532;53.084;6.352;2023-03-15T14:29:17;7.90;;;1.75;;
66628;SDS011;53532;53.084;6.352;2023-03-15T14:31:46;9.95;;;2.63;;
66628;SDS011;53532;53.084;6.352;2023-03-15T14:34:16;13.48;;;2.17;;
66628;SDS011;53532;53.084;6.352;2023-03-15T14:36:44;8.70;;;1.88;;
66628;SDS011;53532;53.084;6.352;2023-03-15T14:39:15;7.20;;;1.83;;
66628;SDS011;53532;53.084;6.352;2023-03-15T14:41:42;9.60;;;2.00;;
66628;SDS011;53532;53.084;6.352;2023-03-15T14:44:08;7.30;;;1.67;;
66628;SDS011;53532;53.084;6.352;2023-03-15T14:46:34;7.47;;;1.70;;
66628;SDS011;53532;53.084;6.352;2023-03-15T14:49:01;7.20;;;1.60;;
66628;SDS011;53532;53.084;6.352;2023-03-15T14:51:27;7.22;;;1.33;;
66628;SDS011;53532;53.084;6.352;2023-03-15T14:53:55;5.72;;;1.20;;